createdAt,value
2024-01-10T00:02:59.572Z,25.60
2024-01-10T00:08:01.398Z,26.23
2024-01-10T00:13:03.287Z,25.23
2024-01-10T00:18:05.181Z,25.87
2024-01-10T00:23:08.019Z,25.37
2024-01-10T00:28:09.776Z,25.80
2024-01-10T00:33:12.588Z,26.13
2024-01-10T00:38:14.800Z,24.87
2024-01-10T00:43:16.714Z,26.23
2024-01-10T00:48:18.652Z,25.03
2024-01-10T00:53:20.490Z,26.17
2024-01-10T00:58:22.221Z,25.47
2024-01-10T01:03:24.124Z,25.40
2024-01-10T01:08:25.990Z,25.73
2024-01-10T01:13:27.786Z,25.93
2024-01-10T01:18:29.727Z,25.80
2024-01-10T01:23:38.956Z,25.87
2024-01-10T01:28:43.836Z,27.13
2024-01-10T01:33:45.685Z,27.87
2024-01-10T01:38:47.559Z,26.23
2024-01-10T01:43:49.678Z,25.10
2024-01-10T01:48:51.886Z,26.60
2024-01-10T01:53:54.562Z,25.10
2024-01-10T01:58:56.826Z,26.70
2024-01-10T02:03:59.559Z,25.80
2024-01-10T02:09:01.420Z,26.87
2024-01-10T02:14:03.269Z,27.37
2024-01-10T02:19:19.720Z,25.80
2024-01-10T02:24:21.605Z,26.57
2024-01-10T02:29:25.367Z,25.83
2024-01-10T02:34:27.107Z,26.57
2024-01-10T02:39:28.806Z,26.70
2024-01-10T02:44:30.648Z,27.00
2024-01-10T02:49:32.395Z,27.93
2024-01-10T02:54:34.080Z,27.97
2024-01-10T02:59:35.765Z,28.27
2024-01-10T03:04:37.859Z,26.83
2024-01-10T03:09:39.563Z,27.83
2024-01-10T03:14:41.361Z,27.77
2024-01-10T03:19:45.103Z,26.83
2024-01-10T03:24:46.916Z,26.87
2024-01-10T03:29:48.689Z,27.07
2024-01-10T03:34:53.387Z,27.63
2024-01-10T03:39:55.180Z,26.27
2024-01-10T03:44:57.125Z,28.13
2024-01-10T03:49:58.876Z,27.60
2024-01-10T03:55:00.634Z,28.07
2024-01-10T04:00:02.316Z,27.50
2024-01-10T04:05:06.646Z,29.03
2024-01-10T04:10:11.358Z,28.07
2024-01-10T04:15:13.290Z,27.30
2024-01-10T04:20:15.221Z,28.10
2024-01-10T04:25:16.954Z,29.87
2024-01-10T04:30:19.015Z,29.80
2024-01-10T04:35:21.025Z,27.97
2024-01-10T04:40:22.782Z,29.70
2024-01-10T04:45:24.512Z,29.77
2024-01-10T04:50:26.281Z,29.50
2024-01-10T04:55:28.847Z,30.50
2024-01-10T05:00:31.301Z,29.57
2024-01-10T05:05:33.203Z,29.63
2024-01-10T05:10:35.015Z,30.73
2024-01-10T05:15:36.739Z,30.23
2024-01-10T05:20:38.522Z,29.13
2024-01-10T05:25:40.338Z,32.10
2024-01-10T05:30:43.906Z,30.67
2024-01-10T05:35:45.660Z,28.60
2024-01-10T05:40:47.439Z,29.60
2024-01-10T05:45:49.199Z,28.10
2024-01-10T05:50:52.148Z,30.77
2024-01-10T05:55:54.125Z,30.43
2024-01-10T06:00:56.211Z,28.83
2024-01-10T06:05:58.022Z,29.37
2024-01-10T06:10:59.821Z,30.83
2024-01-10T06:16:03.666Z,30.30
2024-01-10T06:21:05.560Z,31.17
2024-01-10T06:26:07.720Z,30.07
2024-01-10T06:31:12.362Z,30.67
2024-01-10T06:36:14.871Z,31.33
2024-01-10T06:41:16.766Z,32.57
2024-01-10T06:46:18.517Z,32.17
2024-01-10T06:51:20.202Z,30.53
2024-01-10T06:56:22.041Z,29.83
2024-01-10T07:01:23.782Z,29.87
2024-01-10T07:06:25.631Z,30.47
2024-01-10T07:11:29.407Z,30.70
2024-01-10T07:16:32.778Z,30.67
2024-01-10T07:21:35.049Z,29.13
2024-01-10T07:26:37.578Z,29.97
2024-01-10T07:31:39.485Z,29.87
2024-01-10T07:36:44.460Z,31.00
2024-01-10T07:41:46.208Z,32.30
2024-01-10T07:46:47.952Z,31.17
2024-01-10T07:51:49.705Z,31.23
2024-01-10T07:56:51.401Z,30.43
2024-01-10T08:01:59.950Z,31.53
2024-01-10T08:07:02.159Z,31.90
2024-01-10T08:12:07.430Z,32.67
2024-01-10T08:17:09.445Z,29.97
2024-01-10T08:22:11.192Z,31.13
2024-01-10T08:27:13.453Z,32.10
2024-01-10T08:32:16.218Z,30.57
2024-01-10T08:37:18.967Z,32.10
2024-01-10T08:42:21.103Z,31.60
2024-01-10T08:47:22.989Z,31.77
2024-01-10T08:52:24.966Z,31.23
2024-01-10T08:57:28.945Z,31.17
2024-01-10T09:02:30.758Z,32.27
2024-01-10T09:07:32.457Z,32.03
2024-01-10T09:12:34.444Z,30.17
2024-01-10T09:17:36.310Z,30.17
2024-01-10T09:22:39.399Z,32.13
2024-01-10T09:27:48.092Z,30.70
2024-01-10T09:32:50.090Z,31.90
2024-01-10T09:37:51.994Z,32.47
2024-01-10T09:42:55.569Z,32.00
2024-01-10T09:47:58.387Z,30.60
2024-01-10T09:53:08.356Z,31.60
2024-01-10T09:58:11.512Z,31.53
2024-01-10T10:03:15.249Z,33.57
2024-01-10T10:08:23.111Z,30.70
2024-01-10T10:13:27.084Z,29.90
2024-01-10T10:18:30.132Z,32.27
2024-01-10T10:23:31.940Z,30.13
2024-01-10T10:28:36.202Z,31.10
2024-01-10T10:33:38.652Z,30.80
2024-01-10T10:38:41.367Z,31.07
2024-01-10T10:43:43.315Z,31.53
2024-01-10T10:48:45.671Z,31.43
2024-01-10T10:53:49.405Z,31.50
2024-01-10T10:58:52.946Z,30.23
2024-01-10T11:03:56.039Z,30.70
2024-01-10T11:09:03.895Z,30.53
2024-01-10T11:14:08.689Z,29.60
2024-01-10T11:19:25.729Z,30.93
2024-01-10T11:24:27.962Z,30.60
2024-01-10T11:29:30.786Z,31.20
2024-01-10T11:34:32.858Z,30.87
2024-01-10T11:39:36.498Z,28.63
2024-01-10T11:44:56.590Z,30.77
2024-01-10T11:50:00.099Z,30.43
2024-01-10T11:55:02.175Z,30.53
2024-01-10T12:00:07.798Z,29.13
2024-01-10T12:11:33.886Z,28.00
2024-01-10T12:16:35.901Z,28.37
2024-01-10T12:21:37.972Z,28.00
2024-01-10T12:26:48.047Z,28.30
2024-01-10T12:31:50.287Z,27.20
2024-01-10T12:36:56.205Z,28.10
2024-01-10T12:41:59.375Z,28.83
2024-01-10T12:47:04.784Z,26.50
2024-01-10T12:52:11.160Z,25.03
2024-01-10T12:57:14.620Z,28.77
2024-01-10T13:02:16.457Z,26.47
2024-01-10T13:07:18.513Z,26.40
2024-01-10T13:12:22.742Z,25.97
2024-01-10T13:17:24.656Z,25.63
2024-01-10T13:22:26.433Z,25.67
2024-01-10T13:27:28.238Z,25.93
2024-01-10T13:32:30.066Z,25.57
2024-01-10T13:37:33.723Z,25.13
2024-01-10T13:42:36.538Z,26.30
2024-01-10T13:47:39.315Z,25.57
2024-01-10T13:52:41.280Z,25.73
2024-01-10T13:57:43.112Z,25.17
2024-01-10T14:02:45.125Z,25.07
2024-01-10T14:07:48.049Z,24.20
2024-01-10T14:12:50.126Z,26.43
2024-01-10T14:17:52.755Z,25.40
2024-01-10T14:22:54.656Z,25.90
2024-01-10T14:27:56.534Z,25.87
2024-01-10T14:33:06.011Z,26.37
2024-01-10T14:38:08.858Z,26.90
2024-01-10T14:43:10.713Z,27.83
2024-01-10T14:48:12.613Z,29.30
2024-01-10T14:53:14.510Z,30.17
2024-01-10T14:58:21.039Z,31.03
2024-01-10T15:03:26.601Z,32.83
2024-01-10T15:08:30.620Z,31.07
2024-01-10T15:13:32.573Z,32.20
2024-01-10T15:18:37.650Z,30.63
2024-01-10T15:23:40.058Z,30.47
2024-01-10T15:28:41.784Z,29.53
2024-01-10T15:33:43.563Z,28.77
2024-01-10T15:38:45.357Z,28.57
2024-01-10T15:43:47.133Z,28.50
2024-01-10T15:48:54.653Z,28.60
2024-01-10T15:53:58.715Z,26.97
2024-01-10T15:59:00.585Z,24.93
2024-01-10T16:04:05.494Z,26.27
2024-01-10T16:09:07.729Z,27.10
2024-01-10T16:14:10.395Z,29.83
2024-01-10T16:19:13.163Z,30.00
2024-01-10T16:24:15.031Z,41.77
2024-01-10T16:29:18.678Z,35.97
2024-01-10T16:34:21.745Z,34.33
2024-01-10T16:39:26.008Z,35.03
2024-01-10T16:44:28.106Z,32.00
2024-01-10T16:49:29.872Z,33.50
2024-01-10T16:54:31.887Z,34.87
2024-01-10T16:59:33.609Z,40.87
2024-01-10T17:04:35.372Z,35.77
2024-01-10T17:09:40.177Z,35.13
2024-01-10T17:14:41.898Z,34.23
2024-01-10T17:19:51.275Z,33.53
2024-01-10T17:24:53.211Z,34.20
2024-01-10T17:29:56.438Z,35.27
2024-01-10T17:34:58.882Z,34.27
2024-01-10T17:40:00.649Z,34.80
2024-01-10T17:45:11.351Z,36.97
2024-01-10T17:50:13.359Z,33.80
2024-01-10T17:55:17.637Z,39.07
2024-01-10T18:00:19.838Z,34.37
2024-01-10T18:05:21.740Z,35.97
2024-01-10T18:10:23.931Z,33.87
2024-01-10T18:15:25.668Z,32.63
2024-01-10T18:20:28.284Z,30.97
2024-01-10T18:25:31.249Z,30.67
2024-01-10T18:30:33.680Z,32.17
2024-01-10T18:35:35.713Z,32.00
2024-01-10T18:40:37.900Z,32.97
2024-01-10T18:45:39.854Z,31.00
2024-01-10T18:50:42.193Z,31.00
2024-01-10T18:55:44.316Z,32.87
2024-01-10T19:00:46.172Z,31.60
2024-01-10T19:05:48.170Z,30.37
2024-01-10T19:10:50.076Z,30.43
2024-01-10T19:15:55.915Z,33.10
2024-01-10T19:20:57.870Z,33.60
2024-01-10T19:26:00.481Z,31.93
2024-01-10T19:31:02.937Z,32.97
2024-01-10T19:36:05.095Z,31.40
2024-01-10T19:41:07.020Z,31.03
2024-01-10T19:46:08.961Z,29.37
2024-01-10T19:51:11.338Z,31.10
2024-01-10T19:56:15.388Z,30.03
2024-01-10T20:01:17.329Z,32.43
2024-01-10T20:06:19.492Z,30.60
2024-01-10T20:11:21.870Z,30.13
2024-01-10T20:16:23.682Z,30.37
2024-01-10T20:21:29.986Z,29.97
2024-01-10T20:26:31.743Z,28.03
2024-01-10T20:31:33.705Z,29.23
2024-01-10T20:36:37.361Z,29.17
2024-01-10T20:41:39.217Z,29.63
2024-01-10T20:46:41.037Z,29.97
2024-01-10T20:51:42.814Z,25.87
2024-01-10T20:56:44.540Z,27.83
2024-01-10T21:01:51.534Z,26.47
2024-01-10T21:07:08.228Z,27.20
2024-01-10T21:12:15.895Z,26.40
2024-01-10T21:17:17.812Z,29.13
2024-01-10T21:22:20.720Z,27.73
2024-01-10T21:27:22.824Z,25.83
2024-01-10T21:32:24.931Z,29.17
2024-01-10T21:37:26.785Z,26.67
2024-01-10T21:42:28.877Z,26.47
2024-01-10T21:47:36.609Z,25.73
2024-01-10T21:52:38.671Z,28.73
2024-01-10T21:57:41.092Z,27.47
2024-01-10T22:02:52.859Z,30.10
2024-01-10T22:07:58.725Z,25.67
2024-01-10T22:13:00.659Z,26.53
2024-01-10T22:18:02.757Z,26.43
2024-01-10T22:23:12.640Z,25.50
2024-01-10T22:28:14.729Z,24.73
2024-01-10T22:33:20.256Z,26.50
2024-01-10T22:38:23.415Z,24.67
2024-01-10T22:43:25.503Z,26.10
2024-01-10T22:49:01.290Z,24.37
2024-01-10T22:54:03.608Z,24.10
2024-01-10T22:59:05.515Z,26.33
2024-01-10T23:04:12.282Z,23.40
2024-01-10T23:09:15.915Z,25.00
2024-01-10T23:14:17.951Z,25.23
2024-01-10T23:19:19.810Z,26.13
2024-01-10T23:24:21.619Z,28.67
2024-01-10T23:29:24.512Z,25.90
2024-01-10T23:34:26.349Z,24.67
2024-01-10T23:39:28.184Z,22.10
2024-01-10T23:44:30.006Z,23.13
2024-01-10T23:49:31.926Z,24.50
2024-01-10T23:54:33.761Z,25.10
2024-01-10T23:59:35.896Z,24.83
